Time;durP1;ratioP1;P1;durP2;ratioP2;P2;SDS_P1;SDS_P2;PMS_P1;PMS_P2;Temp;Humidity;BMP_temperature;BMP_pressure;BME280_temperature;BME280_humidity;BME280_pressure;Samples;Min_cycle;Max_cycle;Signal;HPM_P1;HPM_P2
2022/01/27 00:00:41;;;;;;;25.92;13.10;;;;;;;-0.07;65.88;100914.44;5067068;28;20025;-22
2022/01/27 00:05:40;;;;;;;26.80;14.27;;;;;;;0.03;66.01;100921.56;5067417;28;20078;-22
2022/01/27 00:13:00;;;;;;;31.88;14.85;;;;;;;0.16;64.58;100906.41;5066827;28;20032;-21
2022/01/27 00:15:32;;;;;;;45.50;21.27;;;;;;;0.25;64.96;100916.16;5066880;28;20063;-22
2022/01/27 00:18:02;;;;;;;30.55;15.73;;;;;;;0.16;65.44;100916.91;5066878;28;20067;-21
2022/01/27 00:20:27;;;;;;;26.00;13.98;;;;;;;0.42;64.11;100927.81;5066853;28;20039;-21
2022/01/27 00:22:53;;;;;;;26.35;13.95;;;;;;;0.21;64.59;100901.63;5065600;28;20032;-21
2022/01/27 00:25:18;;;;;;;25.33;13.13;;;;;;;0.29;64.61;100935.91;5066552;28;20057;-22
2022/01/27 00:27:44;;;;;;;23.65;13.10;;;;;;;0.12;64.68;100931.25;5065429;28;20036;-21
2022/01/27 00:30:09;;;;;;;23.85;12.77;;;;;;;0.03;64.77;100921.56;5066932;28;20493;-21
2022/01/27 00:32:35;;;;;;;22.25;12.70;;;;;;;0.08;64.46;100929.84;5066740;28;20028;-22
2022/01/27 00:35:01;;;;;;;24.52;12.40;;;;;;;0.06;64.79;100924.75;5066174;28;20107;-22
2022/01/27 00:37:27;;;;;;;23.98;13.18;;;;;;;0.07;64.69;100929.03;5069420;28;20024;-22
2022/01/27 00:39:52;;;;;;;26.35;14.10;;;;;;;0.10;64.77;100925.31;5070526;28;20035;-21
2022/01/27 00:42:18;;;;;;;25.25;12.43;;;;;;;0.12;64.49;100931.25;5070302;28;20052;-23
2022/01/27 00:44:43;;;;;;;24.80;13.48;;;;;;;-0.11;64.60;100920.91;5070781;28;20074;-22
2022/01/27 00:47:09;;;;;;;22.77;13.13;;;;;;;-0.17;64.33;100912.72;5070469;28;20404;-22
2022/01/27 00:49:36;;;;;;;26.88;16.08;;;;;;;-0.03;64.64;100917.66;5070279;28;20040;-22
2022/01/27 00:52:03;;;;;;;26.57;15.07;;;;;;;-0.21;65.04;100909.53;5070216;28;20035;-23
2022/01/27 00:54:30;;;;;;;27.55;16.15;;;;;;;-0.30;65.87;100891.97;5068997;28;20274;-22
2022/01/27 01:04:39;;;;;;;34.72;17.00;;;;;;;-0.23;64.15;100885.22;5069358;28;20032;-22
2022/01/27 01:07:06;;;;;;;35.42;19.15;;;;;;;-0.14;63.70;100902.81;5070036;28;20033;-22
2022/01/27 01:15:15;;;;;;;43.65;23.52;;;;;;;-0.27;64.41;100907.41;5069976;28;20054;-21
2022/01/27 01:17:52;;;;;;;39.58;20.83;;;;;;;-0.55;64.20;100894.00;5068198;28;20695;-22
2022/01/27 01:31:09;;;;;;;38.40;21.50;;;;;;;-1.04;67.00;100890.13;5069742;28;20036;-22
2022/01/27 01:33:38;;;;;;;31.98;17.50;;;;;;;-1.02;66.37;100898.69;5070008;28;20121;-22
2022/01/27 01:36:13;;;;;;;24.45;14.18;;;;;;;-0.91;66.50;100875.06;5069512;28;20040;-21
2022/01/27 01:38:39;;;;;;;25.13;13.73;;;;;;;-0.97;66.04;100878.19;5069626;28;20033;-22
2022/01/27 01:41:04;;;;;;;27.48;14.07;;;;;;;-1.12;66.67;100888.13;5069601;28;20466;-21
2022/01/27 01:43:31;;;;;;;25.92;12.95;;;;;;;-0.91;66.40;100893.41;5069910;28;20032;-21
2022/01/27 01:45:56;;;;;;;27.77;15.30;;;;;;;-1.07;65.98;100877.28;5068703;28;20036;-21
2022/01/27 01:48:23;;;;;;;26.27;14.38;;;;;;;-1.04;67.12;100884.91;5069527;28;20110;-24
2022/01/27 01:50:48;;;;;;;26.60;14.23;;;;;;;-0.92;65.22;100847.25;5069314;28;20093;-21
2022/01/27 01:53:14;;;;;;;32.22;17.02;;;;;;;-0.76;65.73;100866.94;5067705;28;20040;-22
2022/01/27 01:55:40;;;;;;;31.73;19.60;;;;;;;-0.57;64.71;100872.31;5069328;28;20805;-21
2022/01/27 01:58:05;;;;;;;34.35;20.45;;;;;;;-0.62;65.55;100877.91;5069037;28;20035;-21
2022/01/27 02:00:31;;;;;;;38.50;22.40;;;;;;;-0.71;65.98;100885.72;5069293;28;20545;-21
2022/01/27 02:02:56;;;;;;;39.25;22.67;;;;;;;-0.65;66.13;100877.38;5068870;28;20036;-21
2022/01/27 02:05:26;;;;;;;32.05;17.58;;;;;;;-1.07;66.63;100853.72;5069161;28;20033;-21
2022/01/27 02:19:19;;;;;;;36.80;18.83;;;;;;;-0.59;66.26;100853.28;5068110;28;20109;-21
2022/01/27 02:21:52;;;;;;;41.15;21.58;;;;;;;-0.56;65.67;100860.88;5068579;28;20024;-21
2022/01/27 02:24:18;;;;;;;33.45;18.95;;;;;;;-1.13;66.71;100843.72;5068734;28;20246;-22
2022/01/27 02:26:44;;;;;;;32.30;17.30;;;;;;;-0.76;66.02;100867.75;5068407;28;20567;-22
2022/01/27 02:29:10;;;;;;;37.20;19.60;;;;;;;-0.66;66.68;100868.66;5067573;28;20428;-21
2022/01/27 02:31:35;;;;;;;33.72;20.02;;;;;;;-0.77;66.82;100875.75;5067249;28;20107;-21
2022/01/27 02:34:01;;;;;;;32.78;17.83;;;;;;;-0.66;66.11;100871.28;5067223;28;20028;-22
2022/01/27 02:36:27;;;;;;;36.22;17.95;;;;;;;-0.58;65.77;100862.78;5068693;28;20040;-22
2022/01/27 02:38:54;;;;;;;29.40;16.77;;;;;;;-0.51;66.32;100877.06;5068731;28;20024;-22
2022/01/27 02:41:21;;;;;;;28.38;16.25;;;;;;;-0.95;68.18;100864.97;5067561;28;20145;-22
2022/01/27 02:43:46;;;;;;;29.35;15.73;;;;;;;-0.49;67.21;100875.16;5050584;28;20832;-21
2022/01/27 02:46:17;;;;;;;33.80;17.27;;;;;;;-0.60;67.63;100872.56;5068643;28;20032;-22
2022/01/27 02:48:42;;;;;;;33.67;17.90;;;;;;;-0.54;67.70;100882.53;5068252;28;20469;-22
2022/01/27 02:51:08;;;;;;;38.97;21.92;;;;;;;-0.64;67.48;100885.06;5067408;28;20043;-22
2022/01/27 02:53:33;;;;;;;62.00;31.98;;;;;;;-0.54;67.48;100882.53;5067131;28;20033;-22
2022/01/27 02:55:58;;;;;;;181.57;77.43;;;;;;;-0.86;67.99;100861.59;5068257;28;20032;-22
2022/01/27 02:58:24;;;;;;;107.90;55.85;;;;;;;-1.11;69.92;100878.47;5067401;28;20036;-21
2022/01/27 03:00:50;;;;;;;109.38;60.95;;;;;;;-0.84;69.43;100880.63;5068643;28;20028;-21
2022/01/27 03:03:15;;;;;;;84.18;56.13;;;;;;;-0.89;69.39;100867.09;5068152;28;20036;-21
2022/01/27 03:05:41;;;;;;;43.00;27.23;;;;;;;-0.70;69.34;100876.91;5068106;28;20074;-22
2022/01/27 03:08:06;;;;;;;43.03;24.10;;;;;;;-0.94;70.26;100875.34;5067833;28;20705;-22
2022/01/27 03:10:33;;;;;;;29.58;16.83;;;;;;;-0.92;70.11;100857.72;5068321;28;20070;-22
2022/01/27 03:13:00;;;;;;;35.75;20.33;;;;;;;-0.67;69.31;100874.03;5066933;28;20510;-22
2022/01/27 03:15:27;;;;;;;34.38;19.90;;;;;;;-0.99;69.59;100861.78;5066704;28;20036;-21
2022/01/27 03:17:53;;;;;;;33.47;19.85;;;;;;;-0.95;70.28;100851.88;5067564;28;20389;-22
2022/01/27 03:20:18;;;;;;;34.88;18.15;;;;;;;-0.97;71.21;100867.72;5067579;28;20036;-22
2022/01/27 03:22:44;;;;;;;35.17;18.05;;;;;;;-1.16;71.22;100878.84;5067621;28;20114;-22
2022/01/27 03:25:09;;;;;;;36.28;19.35;;;;;;;-0.93;70.41;100877.00;5049648;28;20067;-22
2022/01/27 03:27:35;;;;;;;60.40;34.67;;;;;;;-0.88;70.26;100866.13;5067754;28;20389;-22
2022/01/27 03:30:00;;;;;;;132.23;67.82;;;;;;;-0.92;70.91;100881.28;5067473;28;20428;-21
2022/01/27 03:32:27;;;;;;;74.03;47.97;;;;;;;-0.99;71.17;100872.25;5066305;28;20105;-21
2022/01/27 03:34:53;;;;;;;39.35;23.80;;;;;;;-1.06;71.10;100842.31;5066280;28;20111;-21
2022/01/27 03:37:18;;;;;;;40.08;22.75;;;;;;;-0.54;69.38;100871.25;5065933;28;20067;-22
2022/01/27 03:39:44;;;;;;;37.35;19.65;;;;;;;-0.83;70.18;100877.91;5067624;28;20068;-22
2022/01/27 03:42:09;;;;;;;33.78;18.25;;;;;;;-0.87;70.49;100868.63;5049238;28;20032;-21
2022/01/27 03:44:35;;;;;;;39.38;20.50;;;;;;;-0.97;70.39;100870.34;5067433;28;20025;-22
2022/01/27 03:47:00;;;;;;;34.80;18.15;;;;;;;-1.04;70.99;100879.66;5067238;28;20503;-21
2022/01/27 03:49:26;;;;;;;38.30;19.38;;;;;;;-0.89;70.70;100882.81;5067086;28;20032;-22
2022/01/27 03:51:51;;;;;;;31.88;16.85;;;;;;;-0.37;68.74;100867.22;5065480;28;20462;-21
2022/01/27 03:54:17;;;;;;;32.67;24.30;;;;;;;-0.64;70.10;100882.47;5049132;28;20040;-21
2022/01/27 03:56:42;;;;;;;32.22;18.02;;;;;;;-0.60;70.10;100883.03;5049176;28;20555;-21
2022/01/27 03:59:08;;;;;;;36.67;22.58;;;;;;;-0.54;69.82;100877.31;5065549;28;20032;-22
2022/01/27 04:01:34;;;;;;;44.75;26.27;;;;;;;-0.64;69.88;100890.31;5065732;28;20307;-21
2022/01/27 04:04:01;;;;;;;42.97;27.40;;;;;;;-0.67;69.82;100882.72;5065320;28;20108;-22
2022/01/27 04:06:34;;;;;;;54.83;30.00;;;;;;;-0.74;70.94;100885.97;5066710;28;20032;-21
2022/01/27 04:09:01;;;;;;;57.72;33.58;;;;;;;-0.70;70.94;100890.81;5066621;28;20488;-21
2022/01/27 04:11:26;;;;;;;50.63;30.75;;;;;;;-0.76;70.19;100893.94;5066879;28;20028;-21
2022/01/27 04:13:52;;;;;;;46.63;22.60;;;;;;;-0.64;70.52;100894.72;5065417;28;20035;-23
2022/01/27 04:16:17;;;;;;;35.65;19.65;;;;;;;-0.59;69.41;100884.72;5066833;28;20036;-21
2022/01/27 04:18:43;;;;;;;34.90;18.65;;;;;;;-0.53;70.12;100899.94;5066942;28;20766;-22
2022/01/27 04:21:08;;;;;;;32.30;20.65;;;;;;;-0.81;71.18;100901.34;5066906;28;20036;-22
2022/01/27 04:23:34;;;;;;;28.83;17.13;;;;;;;-0.26;69.66;100909.09;5067070;28;20044;-22
2022/01/27 04:26:00;;;;;;;28.60;16.20;;;;;;;-0.38;69.61;100913.56;5066231;28;20052;-22
2022/01/27 04:28:29;;;;;;;30.30;17.88;;;;;;;-0.49;70.39;100900.50;5066876;28;20083;-22
2022/01/27 04:30:57;;;;;;;28.83;16.33;;;;;;;-0.64;70.82;100898.19;5066788;28;20558;-22
2022/01/27 04:33:28;;;;;;;31.98;18.23;;;;;;;-0.70;71.00;100914.41;5065102;28;20373;-21
2022/01/27 04:35:57;;;;;;;26.58;14.90;;;;;;;-0.62;70.90;100906.75;5066063;28;20746;-22
2022/01/27 04:38:28;;;;;;;33.13;18.30;;;;;;;-0.67;72.11;100923.81;5066067;28;20090;-21
2022/01/27 04:44:17;;;;;;;51.92;32.58;;;;;;;-0.33;70.59;100926.28;5066593;28;20033;-22
2022/01/27 04:46:40;;;;;;;43.65;24.27;;;;;;;-0.41;70.67;100908.56;5064552;28;20152;-22
2022/01/27 04:49:08;;;;;;;30.20;15.80;;;;;;;-0.32;71.00;100927.94;5066663;28;20024;-22
2022/01/27 04:51:34;;;;;;;73.35;58.70;;;;;;;-0.22;70.16;100921.00;5066537;28;20563;-22
2022/01/27 04:56:27;;;;;;;31.58;19.05;;;;;;;-0.17;69.56;100910.94;5066361;28;20074;-21
2022/01/27 04:58:57;;;;;;;29.58;17.10;;;;;;;-0.20;70.22;100929.56;5066651;28;20146;-22
2022/01/27 05:01:30;;;;;;;29.33;16.58;;;;;;;-0.09;70.17;100932.09;5066393;28;20024;-21
2022/01/27 05:04:19;;;;;;;30.13;16.73;;;;;;;0.09;69.79;100927.09;5066174;28;20887;-22
2022/01/27 05:06:42;;;;;;;32.22;17.58;;;;;;;-0.20;69.61;100911.19;5066031;28;20063;-22
2022/01/27 05:09:07;;;;;;;36.60;19.70;;;;;;;-0.23;70.22;100924.56;5066121;28;20029;-22
2022/01/27 05:11:40;;;;;;;33.58;17.52;;;;;;;-0.11;69.98;100934.00;5066551;28;20043;-21
2022/01/27 05:14:15;;;;;;;40.65;19.55;;;;;;;-0.11;70.67;100936.63;5066252;28;20518;-21
2022/01/27 05:16:40;;;;;;;44.03;24.88;;;;;;;-0.14;71.10;100942.16;5066252;28;20047;-21
2022/01/27 05:19:06;;;;;;;62.90;29.52;;;;;;;-0.20;71.16;100926.94;5048229;28;20037;-23
2022/01/27 05:21:34;;;;;;;61.08;31.50;;;;;;;0.02;70.10;100949.56;5067372;28;20090;-21
2022/01/27 05:24:00;;;;;;;;;;;;;;;-0.07;70.35;100950.31;5070235;28;20040;-21
2022/01/27 05:26:26;;;;;;;47.08;25.45;;;;;;;-0.38;71.95;100936.31;5069778;28;19948;-21
2022/01/27 05:28:51;;;;;;;46.22;21.25;;;;;;;-0.14;71.07;100939.53;5069714;28;20058;-21
2022/01/27 05:31:16;;;;;;;33.25;16.58;;;;;;;-0.22;69.99;100949.81;5068664;28;20044;-22
2022/01/27 05:33:42;;;;;;;34.35;17.92;;;;;;;-0.44;71.48;100938.47;5069468;28;20024;-21
2022/01/27 05:36:07;;;;;;;39.47;19.83;;;;;;;0.28;69.87;100946.53;5069495;28;20040;-22
2022/01/27 05:38:35;;;;;;;37.97;19.17;;;;;;;0.33;69.45;100944.38;5069889;28;20029;-22
2022/01/27 05:41:01;;;;;;;41.78;22.73;;;;;;;0.48;68.31;100948.28;5069909;28;20139;-21
2022/01/27 05:43:26;;;;;;;59.20;31.90;;;;;;;0.28;69.57;100949.97;5069572;28;20834;-21
2022/01/27 05:45:51;;;;;;;63.08;32.80;;;;;;;0.26;68.97;100953.69;5069531;28;20036;-21
2022/01/27 05:48:18;;;;;;;49.67;29.90;;;;;;;-0.19;70.35;100949.56;5069613;28;20577;-22
2022/01/27 05:50:43;;;;;;;46.35;25.17;;;;;;;-0.20;70.17;100942.66;5069218;28;20060;-22
2022/01/27 05:53:09;;;;;;;51.33;27.25;;;;;;;-0.06;69.76;100928.38;5069577;28;20161;-22
2022/01/27 05:55:34;;;;;;;48.67;24.42;;;;;;;0.10;69.27;100955.00;5069713;28;20040;-22
2022/01/27 05:58:00;;;;;;;36.72;19.42;;;;;;;-0.05;69.66;100957.09;5068943;28;20033;-21
2022/01/27 06:00:27;;;;;;;43.08;21.45;;;;;;;0.09;69.73;100968.25;5069059;28;20021;-21
2022/01/27 06:02:53;;;;;;;39.40;20.60;;;;;;;0.22;69.25;100968.84;5069204;28;20036;-23
2022/01/27 06:05:18;;;;;;;31.70;17.52;;;;;;;0.33;68.91;100974.03;5069062;28;20028;-21
2022/01/27 06:07:43;;;;;;;34.92;17.75;;;;;;;0.38;69.74;100966.59;5069293;28;20032;-22
2022/01/27 06:10:09;;;;;;;30.33;15.52;;;;;;;0.43;69.19;100981.13;5068983;28;20024;-22
2022/01/27 06:12:44;;;;;;;28.85;16.08;;;;;;;0.28;69.10;100963.09;5069150;28;20405;-22
2022/01/27 06:15:09;;;;;;;34.90;16.48;;;;;;;0.28;68.50;100978.84;5068862;28;20474;-21
2022/01/27 06:17:35;;;;;;;55.20;26.50;;;;;;;0.79;77.04;100966.63;5067699;28;20052;-21
2022/01/27 06:20:02;;;;;;;31.58;17.20;;;;;;;4.85;63.49;100978.19;5068896;28;20032;-22
2022/01/27 06:22:27;;;;;;;26.50;15.07;;;;;;;2.42;61.10;100979.13;5068718;28;20072;-21
2022/01/27 06:24:53;;;;;;;29.58;15.63;;;;;;;1.78;62.98;100985.06;5068813;28;20053;-21
2022/01/27 06:27:18;;;;;;;34.05;16.73;;;;;;;1.63;63.64;100986.44;5068726;28;20028;-22
2022/01/27 06:29:44;;;;;;;40.25;22.20;;;;;;;1.14;64.52;100958.28;5068614;28;20481;-22
2022/01/27 06:32:09;;;;;;;32.97;18.92;;;;;;;1.18;63.92;100985.13;5068635;28;20024;-21
2022/01/27 06:34:35;;;;;;;36.65;21.35;;;;;;;0.48;66.43;100985.03;5068537;28;20044;-21
2022/01/27 06:37:00;;;;;;;69.53;46.28;;;;;;;0.15;67.67;100962.47;5068949;28;20560;-22
2022/01/27 06:39:26;;;;;;;42.78;25.88;;;;;;;0.74;66.00;100993.31;5068846;28;20047;-21
2022/01/27 06:41:51;;;;;;;50.22;30.73;;;;;;;0.63;65.80;100988.13;5068236;28;20804;-21
2022/01/27 06:44:17;;;;;;;35.35;19.17;;;;;;;0.61;66.32;100979.56;5066947;28;20407;-22
2022/01/27 06:46:42;;;;;;;37.95;21.77;;;;;;;0.51;66.58;100983.94;5068134;28;20420;-22
2022/01/27 06:49:09;;;;;;;39.10;26.50;;;;;;;0.36;67.14;100976.41;5068190;28;20071;-22
2022/01/27 06:51:35;;;;;;;44.05;32.58;;;;;;;0.66;66.91;101006.25;5068322;28;20055;-22
2022/01/27 06:54:00;;;;;;;35.80;20.13;;;;;;;0.64;65.75;100983.72;5066580;28;20036;-22
2022/01/27 06:56:26;;;;;;;38.22;22.80;;;;;;;0.54;66.81;100979.25;5068269;28;20392;-21
2022/01/27 06:58:51;;;;;;;42.30;25.60;;;;;;;0.63;67.43;101014.38;5068280;28;20040;-22
2022/01/27 07:01:17;;;;;;;55.63;28.60;;;;;;;0.65;66.98;100993.25;5067971;28;20029;-22
2022/01/27 07:03:42;;;;;;;45.25;25.35;;;;;;;0.79;66.72;100998.16;5068236;28;20407;-22
2022/01/27 07:06:08;;;;;;;69.80;38.78;;;;;;;0.66;66.93;100982.63;5068135;28;20039;-21
2022/01/27 07:08:33;;;;;;;47.85;27.20;;;;;;;0.69;66.62;101005.97;5066717;28;20040;-21
2022/01/27 07:10:59;;;;;;;67.65;34.00;;;;;;;0.81;66.42;100985.72;5067838;28;20090;-21
2022/01/27 07:13:24;;;;;;;206.27;84.95;;;;;;;1.40;66.03;101010.34;5068242;28;20055;-23
2022/01/27 07:15:50;;;;;;;43.70;26.02;;;;;;;1.51;64.25;101015.50;5067403;28;20024;-22
2022/01/27 07:18:16;;;;;;;35.45;19.33;;;;;;;1.23;65.02;101005.75;5067560;28;20036;-21
2022/01/27 07:20:42;;;;;;;44.25;20.00;;;;;;;1.54;64.92;101003.88;5068045;28;20062;-21
2022/01/27 07:23:08;;;;;;;38.78;19.23;;;;;;;1.80;63.98;101009.44;5067542;28;20047;-22
2022/01/27 07:25:33;;;;;;;36.05;17.80;;;;;;;1.97;64.37;101011.34;5067397;28;20106;-21
2022/01/27 07:27:59;;;;;;;34.42;18.85;;;;;;;2.00;64.72;101015.50;5067271;28;20032;-21
2022/01/27 07:30:25;;;;;;;30.88;17.88;;;;;;;2.40;63.09;101017.09;5067423;28;20090;-22
2022/01/27 07:32:50;;;;;;;36.95;19.20;;;;;;;2.63;62.68;101028.13;5067529;28;20040;-21
2022/01/27 07:35:17;;;;;;;36.65;20.17;;;;;;;2.78;62.95;101024.06;5067607;28;20059;-21
2022/01/27 07:37:44;;;;;;;41.17;21.00;;;;;;;3.10;62.10;101022.81;5067438;28;20427;-21
2022/01/27 07:40:10;;;;;;;39.97;22.10;;;;;;;3.23;62.27;101014.56;5067566;28;20036;-22
2022/01/27 07:42:36;;;;;;;56.53;31.40;;;;;;;3.36;61.75;100987.84;5067810;28;20024;-21
2022/01/27 07:45:01;;;;;;;46.88;23.35;;;;;;;3.57;61.29;101017.38;5065280;28;20040;-21
2022/01/27 07:47:27;;;;;;;26.05;15.15;;;;;;;3.64;60.00;100999.16;5065578;28;20468;-23
2022/01/27 07:49:52;;;;;;;42.60;18.58;;;;;;;3.79;60.33;101015.28;5066786;28;20139;-21
2022/01/27 07:52:19;;;;;;;33.90;16.20;;;;;;;4.01;59.71;101019.28;5067064;28;20033;-21
2022/01/27 07:54:45;;;;;;;36.78;17.27;;;;;;;3.96;59.94;101022.38;5066945;28;20028;-21
2022/01/27 07:57:12;;;;;;;31.08;15.23;;;;;;;4.01;59.96;101020.09;5066879;28;20401;-23
2022/01/27 07:59:38;;;;;;;40.67;20.60;;;;;;;4.24;59.43;101009.06;5066460;28;20113;-22
2022/01/27 08:02:03;;;;;;;51.50;25.55;;;;;;;4.65;58.52;101030.44;5066782;28;20446;-21
2022/01/27 08:04:28;;;;;;;31.85;17.45;;;;;;;4.59;58.69;101031.06;5066920;28;20510;-21
2022/01/27 08:06:54;;;;;;;32.05;17.85;;;;;;;4.70;58.28;101024.69;5073624;28;20035;-22
2022/01/27 08:09:19;;;;;;;35.08;19.38;;;;;;;4.94;58.26;101021.34;5086877;28;20031;-22
2022/01/27 08:11:45;;;;;;;27.95;16.13;;;;;;;5.21;57.06;101007.06;5086718;28;20475;-21
2022/01/27 08:14:12;;;;;;;30.75;14.30;;;;;;;5.27;56.74;101029.41;5086635;28;20458;-22
2022/01/27 08:16:37;;;;;;;24.80;13.38;;;;;;;5.31;56.43;101034.22;5086855;28;20040;-21
2022/01/27 08:19:03;;;;;;;25.30;13.38;;;;;;;4.80;56.05;101026.25;5087426;28;20081;-21
2022/01/27 08:21:28;;;;;;;28.42;14.93;;;;;;;4.43;57.60;101019.44;5086791;28;20045;-22
2022/01/27 08:23:55;;;;;;;21.80;13.02;;;;;;;4.31;58.16;101041.78;5085271;28;20043;-22
2022/01/27 08:26:37;;;;;;;25.42;13.90;;;;;;;3.65;60.35;101023.72;5086459;28;20063;-21
2022/01/27 08:29:18;;;;;;;25.65;14.27;;;;;;;3.60;61.15;101045.28;5086619;28;20071;-21
2022/01/27 08:31:55;;;;;;;33.05;17.20;;;;;;;3.75;60.77;101042.97;5086947;28;20027;-22
2022/01/27 08:34:29;;;;;;;25.10;13.35;;;;;;;3.70;60.49;101029.38;5086682;28;20054;-22
2022/01/27 08:36:59;;;;;;;25.42;14.23;;;;;;;3.86;60.93;101031.34;5086637;28;20040;-22
2022/01/27 08:39:24;;;;;;;20.60;12.38;;;;;;;3.62;60.68;101015.13;5085247;28;20161;-21
2022/01/27 08:41:50;;;;;;;26.55;15.15;;;;;;;3.86;60.22;101032.16;5086538;28;20114;-21
2022/01/27 08:44:15;;;;;;;30.75;16.42;;;;;;;4.01;60.09;101017.47;5086785;28;20839;-21
2022/01/27 08:46:41;;;;;;;51.65;26.38;;;;;;;4.21;60.19;101046.34;5086785;28;20020;-22
2022/01/27 08:49:07;;;;;;;22.88;14.45;;;;;;;4.18;59.61;101038.72;5086590;28;20461;-22
2022/01/27 08:51:32;;;;;;;25.27;16.05;;;;;;;4.04;60.68;101026.88;5086664;28;20030;-21
2022/01/27 08:53:58;;;;;;;22.10;12.77;;;;;;;4.01;60.59;101041.22;5086099;28;20038;-21
2022/01/27 08:56:23;;;;;;;23.40;12.98;;;;;;;4.17;60.48;101047.63;5086926;28;20024;-21
2022/01/27 08:58:49;;;;;;;23.73;12.93;;;;;;;4.38;59.64;101048.09;5090712;28;20028;-22
2022/01/27 09:01:15;;;;;;;20.23;10.93;;;;;;;4.36;58.78;101028.94;5089446;28;20024;-22
2022/01/27 09:03:41;;;;;;;18.05;11.00;;;;;;;4.60;58.64;101040.66;5090402;28;20119;-22
2022/01/27 09:06:06;;;;;;;17.00;9.75;;;;;;;4.25;58.43;101021.28;5090446;28;20132;-21
2022/01/27 09:08:32;;;;;;;20.55;11.27;;;;;;;4.37;59.28;101035.91;5090552;28;20032;-23
2022/01/27 09:10:57;;;;;;;16.05;9.70;;;;;;;4.61;59.25;101034.38;5090905;28;20599;-21
2022/01/27 09:13:23;;;;;;;16.60;10.25;;;;;;;4.67;57.61;101041.69;5090435;28;20036;-21
2022/01/27 09:15:49;;;;;;;15.43;7.80;;;;;;;4.58;57.65;101032.06;5090257;28;20028;-21
2022/01/27 09:18:15;;;;;;;14.70;8.48;;;;;;;4.61;58.10;101034.38;5090501;28;20055;-21
2022/01/27 09:20:41;;;;;;;15.77;8.68;;;;;;;4.88;57.52;101029.91;5090448;28;20032;-21
2022/01/27 09:23:13;;;;;;;11.40;7.65;;;;;;;4.85;57.02;101020.47;5088553;28;20039;-22
2022/01/27 09:25:47;;;;;;;20.10;9.85;;;;;;;5.09;56.75;101030.34;5089770;28;20058;-22
2022/01/27 09:28:12;;;;;;;17.05;8.13;;;;;;;5.13;56.06;101034.31;5088897;28;20035;-21
2022/01/27 09:30:38;;;;;;;12.93;6.65;;;;;;;5.18;54.29;101018.78;5089997;28;20032;-21
2022/01/27 09:33:03;;;;;;;14.45;7.85;;;;;;;5.26;55.12;101019.81;5088728;28;20115;-21
2022/01/27 09:35:31;;;;;;;14.73;7.57;;;;;;;5.08;54.59;101041.06;5089753;28;20031;-21
2022/01/27 09:37:57;;;;;;;19.17;8.82;;;;;;;4.88;54.71;101033.38;5089836;28;20491;-21
2022/01/27 09:40:22;;;;;;;19.27;9.13;;;;;;;5.07;54.73;101016.44;5090263;28;20047;-22
2022/01/27 09:42:51;;;;;;;13.75;6.55;;;;;;;5.01;54.35;101007.34;5090020;28;20495;-21
2022/01/27 09:45:17;;;;;;;10.35;5.72;;;;;;;4.80;55.18;101026.25;5090031;28;20030;-22
2022/01/27 09:47:43;;;;;;;12.27;7.18;;;;;;;4.71;56.01;101027.19;5088656;28;20024;-21
2022/01/27 09:52:35;;;;;;;11.38;5.75;;;;;;;4.66;55.14;101003.06;5090017;28;20031;-21
2022/01/27 09:55:00;;;;;;;13.35;7.00;;;;;;;4.97;55.25;101016.56;5088447;28;20024;-21
2022/01/27 09:57:26;;;;;;;13.95;7.65;;;;;;;5.31;55.88;101014.88;5089536;28;20027;-22
2022/01/27 09:59:51;;;;;;;10.98;5.82;;;;;;;5.33;54.90;101011.09;5089510;28;20036;-21
2022/01/27 10:02:18;;;;;;;10.95;6.35;;;;;;;5.31;55.33;101006.94;5089499;28;20085;-22
2022/01/27 10:04:51;;;;;;;19.33;10.07;;;;;;;5.09;53.70;100992.47;5089142;28;20032;-21
2022/01/27 10:07:18;;;;;;;21.20;11.57;;;;;;;5.29;54.80;101003.63;5089257;28;20423;-21
2022/01/27 10:10:00;;;;;;;19.42;9.90;;;;;;;5.24;53.71;100999.63;5089098;28;20032;-22
2022/01/27 10:12:27;;;;;;;12.48;6.82;;;;;;;5.22;54.62;100993.69;5089507;28;20028;-21
2022/01/27 10:15:11;;;;;;;13.90;8.35;;;;;;;5.35;54.72;100992.41;5089281;28;20032;-26
2022/01/27 10:17:39;;;;;;;13.48;7.60;;;;;;;5.45;54.94;100998.38;5089295;28;20028;-21
2022/01/27 10:20:17;;;;;;;17.48;9.93;;;;;;;5.61;53.09;100985.16;5089000;28;20094;-21
2022/01/27 10:22:45;;;;;;;;;;;;;;;5.54;53.45;100989.47;5089314;28;20112;-21
2022/01/27 10:25:20;;;;;;;17.63;8.27;;;;;;;5.40;53.46;100974.22;5087455;28;19920;-21
2022/01/27 10:27:56;;;;;;;13.98;7.40;;;;;;;5.47;53.57;100980.50;5087273;28;20040;-21
2022/01/27 10:32:55;;;;;;;13.18;7.65;;;;;;;5.90;53.05;100986.50;5088813;28;20032;-21
2022/01/27 10:35:25;;;;;;;9.82;6.28;;;;;;;5.57;51.89;100980.38;5088942;28;20096;-21
2022/01/27 10:38:04;;;;;;;10.07;5.82;;;;;;;5.57;51.17;100975.06;5088603;28;20023;-21
2022/01/27 10:40:43;;;;;;;13.13;6.93;;;;;;;5.86;51.57;100965.81;5089020;28;20031;-21
2022/01/27 10:43:22;;;;;;;10.50;5.88;;;;;;;5.97;49.81;100961.06;5088812;28;20111;-21
2022/01/27 10:46:05;;;;;;;9.18;5.90;;;;;;;5.92;50.87;100968.63;5088588;28;20811;-21
2022/01/27 10:48:33;;;;;;;11.15;6.80;;;;;;;5.98;50.03;100961.88;5088282;28;20037;-22
2022/01/27 10:53:42;;;;;;;9.38;5.35;;;;;;;5.59;51.42;100968.63;5088327;28;20047;-21
2022/01/27 10:56:08;;;;;;;27.27;14.80;;;;;;;5.58;50.60;100961.69;5087984;28;20032;-22
2022/01/27 10:58:33;;;;;;;24.45;14.15;;;;;;;5.42;52.35;100946.63;5088403;28;20035;-21
2022/01/27 11:00:59;;;;;;;11.35;6.53;;;;;;;5.45;51.23;100940.16;5087864;28;20042;-22
2022/01/27 11:03:26;;;;;;;19.27;16.30;;;;;;;5.86;52.20;100953.41;5088173;28;20031;-21
2022/01/27 11:05:53;;;;;;;28.60;14.13;;;;;;;5.65;52.29;100919.50;5088037;28;20529;-21
2022/01/27 11:08:23;;;;;;;18.25;8.43;;;;;;;5.95;50.10;100928.63;5088233;28;20035;-21
2022/01/27 11:10:50;;;;;;;12.88;6.75;;;;;;;5.93;50.04;100929.78;5088064;28;20074;-21
2022/01/27 11:13:17;;;;;;;12.20;8.07;;;;;;;6.02;51.06;100947.31;5086629;28;20032;-22
2022/01/27 11:15:42;;;;;;;10.32;5.85;;;;;;;5.89;50.74;100946.97;5088037;28;20035;-21
2022/01/27 11:18:09;;;;;;;10.52;4.70;;;;;;;5.89;49.69;100952.28;5087197;28;20024;-22
2022/01/27 11:21:23;;;;;;;15.25;8.50;;;;;;;6.03;50.58;100949.81;5087675;28;20036;-21
2022/01/27 11:26:08;;;;;;;10.70;5.97;;;;;;;6.25;50.11;100936.84;5069412;28;20069;-22
2022/01/27 11:28:35;;;;;;;12.43;6.00;;;;;;;6.30;49.16;100939.81;5087858;28;20028;-22
2022/01/27 11:31:18;;;;;;;12.38;6.70;;;;;;;5.94;50.03;100940.16;5087752;28;20101;-21
2022/01/27 11:33:44;;;;;;;13.07;7.70;;;;;;;6.08;50.20;100937.88;5087204;28;20030;-21
2022/01/27 11:36:15;;;;;;;8.88;5.47;;;;;;;6.19;48.90;100933.06;5087472;28;20445;-22
2022/01/27 11:38:42;;;;;;;8.45;5.57;;;;;;;6.31;49.15;100933.50;5087187;28;20047;-22
2022/01/27 11:41:33;;;;;;;14.63;8.98;;;;;;;6.16;50.17;100935.22;5087572;28;20066;-21
2022/01/27 11:44:25;;;;;;;15.65;8.05;;;;;;;6.06;50.89;100937.22;5087273;28;20531;-21
2022/01/27 11:47:09;;;;;;;11.85;6.95;;;;;;;5.82;50.82;100928.25;5086930;28;20102;-21
2022/01/27 11:50:07;;;;;;;10.55;5.90;;;;;;;6.00;50.98;100923.66;5087293;28;20035;-21
2022/01/27 11:52:34;;;;;;;13.07;8.23;;;;;;;5.89;50.46;100913.38;5086106;28;20024;-21
2022/01/27 11:55:35;;;;;;;11.05;6.70;;;;;;;6.00;49.98;100915.69;5087340;28;20080;-21
2022/01/27 11:58:11;;;;;;;17.85;10.40;;;;;;;6.23;51.02;100917.63;5024048;28;20132;-21
2022/01/27 12:00:37;;;;;;;13.65;8.68;;;;;;;6.07;50.62;100917.69;5078409;28;20044;-21
2022/01/27 12:03:02;;;;;;;14.23;8.57;;;;;;;6.00;49.23;100918.34;5087076;28;20032;-21
2022/01/27 12:05:32;;;;;;;14.35;9.18;;;;;;;5.73;49.76;100913.41;5086882;28;20034;-22
2022/01/27 12:08:13;;;;;;;11.50;7.30;;;;;;;5.63;50.25;100909.09;5087036;28;20035;-22
2022/01/27 12:10:46;;;;;;;10.43;6.43;;;;;;;5.33;50.61;100883.28;5086752;28;20115;-21
2022/01/27 12:13:27;;;;;;;12.50;6.88;;;;;;;5.89;49.74;100900.16;5087063;28;20036;-21
2022/01/27 12:18:39;;;;;;;12.93;7.95;;;;;;;5.84;49.93;100899.81;5087112;28;20035;-22
2022/01/27 12:21:41;;;;;;;11.80;7.25;;;;;;;5.84;49.12;100892.72;5086570;28;20027;-21